»·PEaware :: N54073 KMSO-KHLN

N54073 :: KMSO-KHLN

FLIGHT INFORMATION

Flight Status: Arrived
Operator: Privately registered:
United States
More flights under this callsign
Pilot: Anonymous 27411 (27411)
Aircraft: BEECH AIRCRAFT BARON
(BE58)
More flights by this aircraft type
Origin: KMSO Missoula Intl
United States
Destination: KHLN Helena Regl
United States
More flights between these airports :: More routes between these airports
Route: GRZLY3 MSO T268 HLN
File this flight plan on PilotEdge
Remarks: thank you!
Altitude:
(Current/Filed)
10,000ft
Speed:
(Current/Filed)
175kts
Departed: 21-Nov-21 07:58 PM
Arrived: 21-Nov-21 08:32 PM
Distance/Time
Traveled:
89nm/0:34
Distance/Time
To Go:
Arrived

Flight Plot

Page will automatically refresh every two minutes.

Flight plan parsing failed; only flown route is shown


Map Options




Map Legend


Flown Route
Filed Route
Departure Airport
Arrival Airport
Navaid (VOR, NDB)
Fix

Horizontal Profiles

Position Reports

Time Latitude Longitude Heading Altitude Ground
Speed
21-Nov-21 19:29 46.920544 -114.085126 349 3210ft 0kts
21-Nov-21 19:30 46.920544 -114.085126 349 3210ft 0kts
21-Nov-21 19:31 46.920544 -114.085126 349 3210ft 0kts
21-Nov-21 19:32 46.920544 -114.085126 349 3210ft 0kts
21-Nov-21 19:33 46.920544 -114.085126 349 3210ft 0kts
21-Nov-21 19:34 46.920544 -114.085126 349 3210ft 0kts
21-Nov-21 19:35 46.920544 -114.085126 349 3210ft 0kts
21-Nov-21 19:36 46.920544 -114.085126 349 3210ft 0kts
21-Nov-21 19:37 46.920544 -114.085126 349 3210ft 0kts
21-Nov-21 19:38 46.920544 -114.085126 349 3210ft 0kts
21-Nov-21 19:39 46.920544 -114.085126 349 3210ft 0kts
21-Nov-21 19:40 46.920203 -114.085458 203 3210ft 5kts
21-Nov-21 19:41 46.919080 -114.087407 290 3210ft 7kts
21-Nov-21 19:42 46.918050 -114.090075 220 3210ft 10kts
21-Nov-21 19:43 46.919510 -114.093745 310 3210ft 12kts
21-Nov-21 19:44 46.922426 -114.098713 309 3210ft 25kts
21-Nov-21 19:45 46.925868 -114.104704 281 3210ft 10kts
21-Nov-21 19:46 46.925414 -114.103806 131 3210ft 1kts
21-Nov-21 19:47 46.924971 -114.104398 225 3210ft 0kts
21-Nov-21 19:48 46.924964 -114.104440 277 3210ft 1kts
21-Nov-21 19:49 46.925525 -114.105557 222 3210ft 0kts
21-Nov-21 19:50 46.925525 -114.105557 222 3210ft 0kts
21-Nov-21 19:51 46.925525 -114.105557 222 3210ft 0kts
21-Nov-21 19:52 46.925525 -114.105557 222 3210ft 0kts
21-Nov-21 19:53 46.925525 -114.105557 222 3210ft 0kts
21-Nov-21 19:54 46.925525 -114.105557 222 3210ft 0kts
21-Nov-21 19:55 46.925525 -114.105557 222 3210ft 0kts
21-Nov-21 19:56 46.925525 -114.105557 222 3210ft 0kts
21-Nov-21 19:57 46.918898 -114.095640 122 3318ft 106kts
21-Nov-21 19:58 46.893006 -114.078122 204 4877ft 111kts
21-Nov-21 19:59 46.861848 -114.073334 169 6275ft 127kts
21-Nov-21 20:00 46.827992 -114.062070 171 7598ft 136kts
21-Nov-21 20:01 46.816386 -114.028439 13 8757ft 117kts
21-Nov-21 20:02 46.840193 -114.045035 309 10004ft 98kts
21-Nov-21 20:03 46.868428 -114.066514 333 10718ft 118kts
21-Nov-21 20:04 46.902872 -114.049856 54 11099ft 181kts
21-Nov-21 20:05 46.894970 -113.971745 104 11205ft 201kts
21-Nov-21 20:06 46.883396 -113.886547 101 10829ft 215kts
21-Nov-21 20:07 46.869765 -113.803978 99 10956ft 209kts
21-Nov-21 20:08 46.858963 -113.720375 103 11004ft 205kts
21-Nov-21 20:09 46.847220 -113.638359 102 11073ft 204kts
21-Nov-21 20:10 46.835623 -113.556412 102 11058ft 210kts
21-Nov-21 20:11 46.821417 -113.472664 97 10977ft 207kts
21-Nov-21 20:12 46.812092 -113.388949 101 11027ft 201kts
21-Nov-21 20:13 46.801052 -113.307092 102 10955ft 211kts
21-Nov-21 20:14 46.787289 -113.224542 100 10943ft 209kts
21-Nov-21 20:15 46.775180 -113.141896 98 10901ft 210kts
21-Nov-21 20:16 46.764763 -113.059606 100 11104ft 199kts
21-Nov-21 20:17 46.751888 -112.978786 107 11027ft 208kts
21-Nov-21 20:18 46.742428 -112.896017 97 11034ft 208kts
21-Nov-21 20:19 46.730194 -112.813895 105 11125ft 207kts
21-Nov-21 20:20 46.714261 -112.732461 98 11100ft 211kts
21-Nov-21 20:21 46.704491 -112.648354 101 11121ft 215kts
21-Nov-21 20:23 46.692046 -112.563267 94 11145ft 211kts
21-Nov-21 20:24 46.681947 -112.478435 96 11069ft 217kts
21-Nov-21 20:25 46.668267 -112.393140 102 10485ft 232kts
21-Nov-21 20:26 46.646250 -112.309180 120 9789ft 229kts
21-Nov-21 20:27 46.638515 -112.227089 80 8667ft 201kts
21-Nov-21 20:28 46.630524 -112.149660 96 7987ft 175kts
21-Nov-21 20:29 46.620887 -112.093118 92 6716ft 118kts
21-Nov-21 20:30 46.616833 -112.050148 93 5414ft 107kts
21-Nov-21 20:31 46.609324 -112.003181 102 4034ft 105kts
21-Nov-21 20:32 46.605253 -111.984849 189 3879ft 0kts
21-Nov-21 20:33 46.604024 -111.983301 138 3879ft 14kts

Navigation Log

Ident Type
Flight plan parsing failed, navigation log unavailable